Time;durP1;ratioP1;P1;durP2;ratioP2;P2;SDS_P1;SDS_P2;PMS_P1;PMS_P2;Temp;Humidity;BMP_temperature;BMP_pressure;BME280_temperature;BME280_humidity;BME280_pressure;Samples;Min_cycle;Max_cycle;Signal;HPM_P1;HPM_P2
2023/10/15 00:03:40;;;;;;;2.17;1.40;;;13.80;93.70;;;;;;10539040;28;20278;-87
2023/10/15 00:08:42;;;;;;;3.78;1.17;;;13.40;91.90;;;;;;10539517;28;20215;-88
2023/10/15 00:13:45;;;;;;;5.38;0.90;;;13.10;94.10;;;;;;10540540;28;20266;-87
2023/10/15 00:18:48;;;;;;;4.70;1.23;;;12.80;92.80;;;;;;10539985;28;20205;-88
2023/10/15 00:23:51;;;;;;;1.87;0.67;;;12.80;93.80;;;;;;10541160;28;20247;-88
2023/10/15 00:28:55;;;;;;;1.55;0.70;;;12.70;96.00;;;;;;10541267;28;20611;-87
2023/10/15 00:33:58;;;;;;;1.38;0.60;;;13.00;96.50;;;;;;10539514;28;20572;-88
2023/10/15 00:39:00;;;;;;;5.15;1.05;;;12.50;95.20;;;;;;10538569;28;20222;-88
2023/10/15 00:44:09;;;;;;;5.23;1.23;;;12.10;95.10;;;;;;10540428;28;20664;-88
2023/10/15 00:49:13;;;;;;;4.30;1.13;;;12.00;96.10;;;;;;10539730;28;20194;-88
2023/10/15 00:54:16;;;;;;;3.97;1.42;;;12.10;96.10;;;;;;10539874;28;20634;-88
2023/10/15 00:59:21;;;;;;;2.60;1.00;;;11.80;95.20;;;;;;10538577;28;20628;-88
2023/10/15 01:04:30;;;;;;;4.47;1.50;;;11.70;96.00;;;;;;10537478;28;20233;-88
2023/10/15 01:09:33;;;;;;;5.83;1.17;;;11.60;95.80;;;;;;10539124;28;20201;-88
2023/10/15 01:14:44;;;;;;;4.68;1.20;;;11.70;97.00;;;;;;10537528;28;20202;-88
2023/10/15 01:19:47;;;;;;;5.07;0.87;;;11.90;97.70;;;;;;10538571;28;20209;-88
2023/10/15 01:24:53;;;;;;;2.88;1.08;;;11.70;97.10;;;;;;10537380;28;20208;-88
2023/10/15 01:29:58;;;;;;;2.17;0.80;;;11.60;96.50;;;;;;10536933;28;20209;-88
2023/10/15 01:35:06;;;;;;;3.10;0.90;;;11.90;99.90;;;;;;10537974;28;20227;-88
2023/10/15 01:45:30;;;;;;;4.72;1.35;;;11.90;96.60;;;;;;10536972;28;20602;-88
2023/10/15 01:51:04;;;;;;;1.90;0.93;;;11.70;97.30;;;;;;10536166;28;20190;-87
2023/10/15 01:56:00;;;;;;;1.80;0.80;;;12.00;99.90;;;;;;10537397;28;20197;-88
2023/10/15 02:01:21;;;;;;;2.57;0.90;;;12.30;99.00;;;;;;10535964;28;20259;-88
2023/10/15 02:06:25;;;;;;;0.93;0.70;;;12.00;98.90;;;;;;10535516;28;20274;-88
2023/10/15 02:11:27;;;;;;;5.15;1.30;;;11.70;97.90;;;;;;10536372;28;20211;-88
2023/10/15 02:16:30;;;;;;;4.43;1.30;;;11.80;96.90;;;;;;10534363;28;20223;-88
2023/10/15 02:21:34;;;;;;;2.30;1.13;;;11.90;96.70;;;;;;10535746;28;20213;-88
2023/10/15 02:26:36;;;;;;;2.27;0.90;;;11.60;98.30;;;;;;10536401;28;20263;-88
2023/10/15 02:31:44;;;;;;;2.53;0.70;;;11.70;99.20;;;;;;10534986;28;20201;-88
2023/10/15 02:36:47;;;;;;;2.20;0.70;;;12.00;99.90;;;;;;10536199;28;20224;-88
2023/10/15 02:41:52;;;;;;;2.75;1.02;;;12.00;99.90;;;;;;10534627;28;20251;-88
2023/10/15 02:47:06;;;;;;;2.57;1.20;;;12.20;97.70;;;;;;10536194;28;20243;-88
2023/10/15 02:52:19;;;;;;;6.10;1.88;;;12.60;97.30;;;;;;10534720;28;20205;-88
2023/10/15 02:57:22;;;;;;;1.50;0.90;;;12.60;98.70;;;;;;10533954;28;20254;-88
2023/10/15 03:02:25;;;;;;;4.10;0.70;;;12.40;97.20;;;;;;10533352;28;20225;-88
2023/10/15 03:07:31;;;;;;;3.40;1.10;;;12.60;99.50;;;;;;10517109;28;20237;-88
2023/10/15 03:12:33;;;;;;;5.83;1.13;;;12.90;99.00;;;;;;10535705;28;20250;-88
2023/10/15 03:17:40;;;;;;;2.47;0.80;;;13.10;95.20;;;;;;10533626;28;20258;-88
2023/10/15 03:22:46;;;;;;;2.77;0.70;;;13.30;97.90;;;;;;10533697;28;20562;-88
2023/10/15 03:27:53;;;;;;;4.77;1.20;;;13.50;97.10;;;;;;10535069;28;20189;-88
2023/10/15 03:33:00;;;;;;;2.13;0.70;;;13.40;95.40;;;;;;10541208;28;20194;-88
2023/10/15 03:38:09;;;;;;;2.78;1.17;;;13.20;95.50;;;;;;10542642;28;20568;-87
2023/10/15 03:43:16;;;;;;;4.20;1.13;;;13.20;93.10;;;;;;10542044;28;20198;-87
2023/10/15 03:48:29;;;;;;;1.57;0.60;;;13.20;92.00;;;;;;10540834;28;20227;-88
2023/10/15 03:53:35;;;;;;;3.93;0.60;;;13.40;97.70;;;;;;10541734;28;20210;-88
2023/10/15 03:58:38;;;;;;;4.30;0.93;;;14.00;96.20;;;;;;10542240;28;20225;-88
2023/10/15 04:03:43;;;;;;;3.33;1.73;;;13.80;92.40;;;;;;10541208;28;20225;-88
2023/10/15 04:14:13;;;;;;;3.40;1.07;;;13.90;93.70;;;;;;10541287;28;20197;-88
2023/10/15 04:19:18;;;;;;;2.17;0.80;;;13.70;92.80;;;;;;10540925;28;20657;-88
2023/10/15 04:29:50;;;;;;;2.40;1.07;;;13.90;91.60;;;;;;10541097;28;20543;-88
2023/10/15 04:34:52;;;;;;;2.90;1.03;;;14.10;92.20;;;;;;10540205;28;20557;-88
2023/10/15 04:39:55;;;;;;;1.47;0.70;;;14.20;94.00;;;;;;10539344;28;20232;-88
2023/10/15 04:45:23;;;;;;;2.53;1.10;;;14.10;92.60;;;;;;10538775;28;20560;-87
2023/10/15 04:50:35;;;;;;;1.37;0.83;;;13.90;91.60;;;;;;10539361;28;20267;-88
2023/10/15 04:55:46;;;;;;;2.97;1.10;;;13.80;93.30;;;;;;10539552;28;20581;-88
2023/10/15 05:00:48;;;;;;;2.93;0.80;;;13.80;88.60;;;;;;10537985;28;20217;-88
2023/10/15 05:05:55;;;;;;;2.90;1.00;;;13.80;95.70;;;;;;10538742;28;20256;-88
2023/10/15 05:10:58;;;;;;;0.80;0.60;;;14.20;93.10;;;;;;10538845;28;20247;-88
2023/10/15 05:16:01;;;;;;;1.63;0.90;;;13.90;91.40;;;;;;10539336;28;20197;-87
2023/10/15 05:21:03;;;;;;;1.53;0.50;;;14.10;91.00;;;;;;10538408;28;20572;-88
2023/10/15 05:26:06;;;;;;;3.63;0.83;;;14.20;92.20;;;;;;10539282;28;20605;-88
2023/10/15 05:31:08;;;;;;;1.57;0.80;;;14.10;92.90;;;;;;10538853;28;20633;-87
2023/10/15 05:36:11;;;;;;;3.80;1.23;;;14.60;92.40;;;;;;10537984;28;20278;-88
2023/10/15 05:41:15;;;;;;;7.33;0.90;;;14.70;86.60;;;;;;10537911;28;20222;-88
2023/10/15 05:46:17;;;;;;;4.20;1.57;;;14.40;91.40;;;;;;10537696;28;20198;-88
2023/10/15 05:51:23;;;;;;;2.67;1.00;;;14.40;76.10;;;;;;10536718;28;20220;-88
2023/10/15 05:56:27;;;;;;;2.23;0.70;;;14.70;87.00;;;;;;10508517;28;20687;-87
2023/10/15 06:01:30;;;;;;;2.87;0.87;;;14.80;90.10;;;;;;10537757;28;20563;-88
2023/10/15 06:06:33;;;;;;;1.80;0.50;;;14.50;88.20;;;;;;10536423;28;20221;-87
2023/10/15 06:11:35;;;;;;;4.17;1.40;;;14.40;87.80;;;;;;10536997;28;20209;-88
2023/10/15 06:16:38;;;;;;;3.60;0.93;;;14.10;82.10;;;;;;10536512;28;20206;-87
2023/10/15 06:21:41;;;;;;;1.97;0.80;;;14.00;90.60;;;;;;10535411;28;20243;-87
2023/10/15 06:26:44;;;;;;;3.63;0.97;;;14.00;93.50;;;;;;10536465;28;20224;-87
2023/10/15 06:31:46;;;;;;;3.00;0.90;;;14.00;78.20;;;;;;10534883;28;20557;-87
2023/10/15 06:36:50;;;;;;;2.90;0.70;;;13.90;91.40;;;;;;10534855;28;20203;-88
2023/10/15 06:41:53;;;;;;;0.80;0.40;;;14.30;86.80;;;;;;10535839;28;20756;-87
2023/10/15 06:46:55;;;;;;;3.93;1.20;;;14.00;87.30;;;;;;10534399;28;20255;-87
2023/10/15 06:51:58;;;;;;;2.97;0.90;;;14.10;89.20;;;;;;10535228;28;20193;-87
2023/10/15 06:57:04;;;;;;;1.67;0.60;;;14.20;85.20;;;;;;10536609;28;20238;-88
2023/10/15 07:02:06;;;;;;;1.87;0.80;;;14.10;89.80;;;;;;10535569;28;20224;-88
2023/10/15 07:07:09;;;;;;;1.13;0.50;;;14.10;90.00;;;;;;10543046;28;20233;-88
2023/10/15 07:12:11;;;;;;;1.63;0.70;;;14.20;86.20;;;;;;10544893;28;20313;-88
2023/10/15 07:17:17;;;;;;;2.40;1.00;;;14.30;86.30;;;;;;10543703;28;20262;-87
2023/10/15 07:22:20;;;;;;;1.27;0.40;;;14.70;86.90;;;;;;10543905;28;20221;-88
2023/10/15 07:27:23;;;;;;;4.30;1.10;;;14.90;84.60;;;;;;10544703;28;20198;-87
2023/10/15 07:32:25;;;;;;;3.67;0.90;;;14.70;71.50;;;;;;10543310;28;20970;-88
2023/10/15 07:37:28;;;;;;;5.83;1.10;;;14.80;82.40;;;;;;10543240;28;20232;-87
2023/10/15 07:42:32;;;;;;;1.80;0.80;;;14.70;78.40;;;;;;10543256;28;20222;-87
2023/10/15 07:47:37;;;;;;;4.97;1.03;;;15.00;84.00;;;;;;10542922;28;20185;-87
2023/10/15 07:52:40;;;;;;;5.43;1.30;;;15.90;82.40;;;;;;10543529;28;20624;-87
2023/10/15 07:57:43;;;;;;;2.97;1.47;;;16.00;71.10;;;;;;10543402;28;20190;-86
2023/10/15 08:02:46;;;;;;;2.90;1.03;;;16.20;74.80;;;;;;10543781;28;20217;-87
2023/10/15 08:07:51;;;;;;;1.23;0.53;;;16.30;71.20;;;;;;10542286;28;20294;-87
2023/10/15 08:12:53;;;;;;;5.47;1.50;;;15.60;80.10;;;;;;10542254;28;20226;-87
2023/10/15 08:17:57;;;;;;;2.20;0.97;;;15.50;64.70;;;;;;10541256;28;20899;-87
2023/10/15 08:23:01;;;;;;;0.80;0.70;;;14.80;69.80;;;;;;10541588;28;20297;-87
2023/10/15 08:28:04;;;;;;;4.00;0.90;;;15.10;80.70;;;;;;10541085;28;20619;-87
2023/10/15 08:33:10;;;;;;;3.00;1.20;;;15.20;76.70;;;;;;10541381;28;20190;-87
2023/10/15 08:38:13;;;;;;;2.47;0.77;;;14.60;53.30;;;;;;10541080;28;20227;-87
2023/10/15 08:43:23;;;;;;;1.77;0.90;;;14.40;66.40;;;;;;10539682;28;20221;-87
2023/10/15 08:48:28;;;;;;;1.77;0.93;;;14.20;73.50;;;;;;10541278;28;20611;-87
2023/10/15 08:53:32;;;;;;;11.77;0.83;;;13.70;68.50;;;;;;10540955;28;20227;-88
2023/10/15 08:58:35;;;;;;;4.57;1.23;;;14.00;78.70;;;;;;10538713;28;20194;-88
2023/10/15 09:03:38;;;;;;;2.63;1.10;;;14.30;69.50;;;;;;10529100;28;20221;-88
2023/10/15 09:08:41;;;;;;;5.57;1.20;;;14.60;75.20;;;;;;10538160;28;20243;-88
2023/10/15 09:13:50;;;;;;;4.27;1.40;;;14.50;64.40;;;;;;10539755;28;20250;-88
2023/10/15 09:18:52;;;;;;;3.90;1.03;;;14.40;61.50;;;;;;10539763;28;20216;-88
2023/10/15 09:23:55;;;;;;;6.67;1.10;;;14.70;71.00;;;;;;10537044;28;20213;-88
2023/10/15 09:28:58;;;;;;;1.75;0.65;;;14.50;66.00;;;;;;10539209;28;20259;-88
2023/10/15 09:34:00;;;;;;;5.63;1.30;;;14.20;75.80;;;;;;10537323;28;20202;-88
2023/10/15 09:39:12;;;;;;;1.20;0.50;;;14.60;71.20;;;;;;10538497;28;20206;-89
2023/10/15 09:44:15;;;;;;;1.43;0.57;;;15.40;74.70;;;;;;10537899;28;20612;-88
2023/10/15 09:49:20;;;;;;;3.10;0.73;;;15.90;68.40;;;;;;10538504;28;20198;-88
2023/10/15 09:54:23;;;;;;;1.70;0.83;;;16.10;70.20;;;;;;10538143;28;20193;-88
2023/10/15 09:59:26;;;;;;;1.83;0.60;;;16.20;66.60;;;;;;10538000;28;20614;-88
2023/10/15 10:04:48;;;;;;;1.07;0.57;;;15.80;61.80;;;;;;10537593;28;20279;-88
2023/10/15 10:09:59;;;;;;;4.43;0.97;;;15.70;71.30;;;;;;10536813;28;20209;-88
2023/10/15 10:15:22;;;;;;;2.70;0.97;;;15.80;66.00;;;;;;10537717;28;20202;-89
2023/10/15 10:20:33;;;;;;;2.57;1.10;;;15.30;49.90;;;;;;10537571;28;20217;-88
2023/10/15 10:25:39;;;;;;;2.10;1.07;;;15.20;63.80;;;;;;10536905;28;20190;-88
2023/10/15 10:30:55;;;;;;;5.60;1.90;;;15.00;54.70;;;;;;10537260;28;20209;-88
2023/10/15 10:36:10;;;;;;;5.77;1.00;;;15.40;59.40;;;;;;10536659;28;20201;-88
2023/10/15 10:41:13;;;;;;;3.77;1.23;;;15.20;60.70;;;;;;10535819;28;20279;-88
2023/10/15 10:46:27;;;;;;;2.03;1.10;;;15.30;62.50;;;;;;10535956;28;20193;-88
2023/10/15 10:51:30;;;;;;;3.93;1.40;;;15.30;64.00;;;;;;10536554;28;20201;-87
2023/10/15 10:56:42;;;;;;;3.33;1.20;;;14.90;52.80;;;;;;10534681;28;20209;-87
2023/10/15 11:01:45;;;;;;;1.77;1.20;;;14.80;48.30;;;;;;10535429;28;20271;-88
2023/10/15 11:06:48;;;;;;;0.87;0.60;;;14.50;70.00;;;;;;10534114;28;20225;-87
2023/10/15 11:11:53;;;;;;;5.80;1.13;;;15.00;72.70;;;;;;10536179;28;20209;-87
2023/10/15 11:16:56;;;;;;;4.70;1.23;;;15.10;57.40;;;;;;10535555;28;20220;-88
2023/10/15 11:21:59;;;;;;;2.73;1.33;;;15.00;46.60;;;;;;10535804;28;20214;-87
2023/10/15 11:27:06;;;;;;;2.07;0.83;;;15.00;52.00;;;;;;10534652;28;20247;-88
2023/10/15 11:32:11;;;;;;;1.43;0.63;;;15.40;58.80;;;;;;10533504;28;20609;-87
2023/10/15 11:37:16;;;;;;;1.87;0.60;;;15.50;62.90;;;;;;10534810;28;20590;-87
2023/10/15 11:42:20;;;;;;;1.87;1.00;;;15.80;57.50;;;;;;10535785;28;20214;-87
2023/10/15 11:47:27;;;;;;;1.73;0.70;;;15.20;48.70;;;;;;10535067;28;20613;-87
2023/10/15 11:52:40;;;;;;;8.37;1.70;;;14.70;54.90;;;;;;10539415;28;20193;-87
2023/10/15 11:57:49;;;;;;;1.60;0.80;;;14.70;60.70;;;;;;10541098;28;20630;-88
2023/10/15 12:02:51;;;;;;;2.80;1.00;;;14.90;56.50;;;;;;10542565;28;20295;-88
2023/10/15 12:07:54;;;;;;;4.67;1.20;;;14.90;52.10;;;;;;10542550;28;20274;-87
2023/10/15 12:12:58;;;;;;;5.87;1.50;;;14.90;47.20;;;;;;10540809;28;20225;-88
2023/10/15 12:18:04;;;;;;;2.53;1.47;;;14.60;42.90;;;;;;10541224;28;20197;-87
2023/10/15 12:23:07;;;;;;;1.93;0.67;;;15.10;65.90;;;;;;10541372;28;20275;-87
2023/10/15 12:28:10;;;;;;;5.07;1.40;;;15.70;52.20;;;;;;10540351;28;20593;-87
2023/10/15 12:33:15;;;;;;;2.13;0.83;;;15.20;39.10;;;;;;10540191;28;20542;-87
2023/10/15 12:38:26;;;;;;;1.70;0.87;;;15.30;52.50;;;;;;10540831;28;20266;-88
2023/10/15 12:43:29;;;;;;;2.30;0.80;;;15.20;48.00;;;;;;10539879;28;20259;-87
2023/10/15 12:48:32;;;;;;;3.50;0.82;;;15.50;56.90;;;;;;10539743;28;20194;-87
2023/10/15 12:53:35;;;;;;;4.07;0.80;;;15.50;47.50;;;;;;10540296;28;20198;-88
2023/10/15 12:58:38;;;;;;;5.17;1.00;;;15.30;41.50;;;;;;10539144;28;20227;-88
2023/10/15 13:03:40;;;;;;;5.70;1.00;;;15.20;47.30;;;;;;10539744;28;20302;-88
2023/10/15 13:08:43;;;;;;;2.10;0.50;;;15.40;49.90;;;;;;10539481;28;20267;-87
2023/10/15 13:13:46;;;;;;;3.73;1.13;;;16.00;58.10;;;;;;10539091;28;20570;-88
2023/10/15 13:18:52;;;;;;;0.50;0.40;;;16.00;42.30;;;;;;10538720;28;20667;-87
2023/10/15 13:23:55;;;;;;;1.17;0.63;;;16.10;58.40;;;;;;10539043;28;20222;-87
2023/10/15 13:28:57;;;;;;;2.87;0.97;;;16.30;45.50;;;;;;10537543;28;20611;-88
2023/10/15 13:34:00;;;;;;;1.87;0.90;;;15.80;32.10;;;;;;10539076;28;20186;-87
2023/10/15 13:39:02;;;;;;;2.40;0.93;;;15.70;44.90;;;;;;10538046;28;20202;-87
2023/10/15 13:44:10;;;;;;;2.60;0.90;;;15.50;50.00;;;;;;10538097;28;20210;-87
2023/10/15 13:49:12;;;;;;;1.37;0.80;;;15.50;45.40;;;;;;10536967;28;20542;-87
2023/10/15 13:54:15;;;;;;;1.90;0.70;;;15.80;53.20;;;;;;10537739;28;20198;-87
2023/10/15 13:59:20;;;;;;;2.37;1.00;;;16.20;52.80;;;;;;10537117;28;20198;-87
2023/10/15 14:04:23;;;;;;;3.37;0.90;;;16.20;45.90;;;;;;10536232;28;20275;-88
2023/10/15 14:09:33;;;;;;;1.90;0.77;;;16.00;43.70;;;;;;10535732;28;20291;-86
2023/10/15 14:14:39;;;;;;;3.20;1.07;;;15.80;28.40;;;;;;10535744;28;20223;-86
2023/10/15 14:19:41;;;;;;;3.47;1.07;;;15.90;25.90;;;;;;10537105;28;20204;-86
2023/10/15 14:24:46;;;;;;;4.53;0.80;;;16.00;21.40;;;;;;10535629;28;20660;-86
2023/10/15 14:29:49;;;;;;;8.23;1.33;;;15.40;23.00;;;;;;10536630;28;20258;-86
2023/10/15 14:34:52;;;;;;;2.83;1.17;;;14.80;26.20;;;;;;10536380;28;20221;-86
2023/10/15 14:39:54;;;;;;;2.60;1.00;;;14.50;26.40;;;;;;10537178;28;20193;-86
2023/10/15 14:44:57;;;;;;;7.30;1.50;;;14.70;28.90;;;;;;10535379;28;20640;-87
2023/10/15 14:50:02;;;;;;;2.60;0.93;;;14.10;30.50;;;;;;10536660;28;20676;-86
2023/10/15 14:55:06;;;;;;;4.43;0.97;;;14.00;32.70;;;;;;10535427;28;20208;-87
2023/10/15 15:00:14;;;;;;;4.10;1.00;;;13.90;34.40;;;;;;10537091;28;20243;-86
2023/10/15 15:05:17;;;;;;;3.00;1.37;;;14.10;33.90;;;;;;10534810;28;20233;-87
2023/10/15 15:10:19;;;;;;;4.60;1.10;;;14.30;35.00;;;;;;10534555;28;20262;-86
2023/10/15 15:15:22;;;;;;;1.83;1.10;;;14.30;34.90;;;;;;10534735;28;20201;-86
2023/10/15 15:20:25;;;;;;;3.13;1.13;;;14.20;32.30;;;;;;10535271;28;20263;-87
2023/10/15 15:25:27;;;;;;;4.27;1.37;;;14.50;36.50;;;;;;10538564;28;20213;-86
2023/10/15 15:30:30;;;;;;;2.83;1.23;;;14.20;36.90;;;;;;10544396;28;20190;-86
2023/10/15 15:35:32;;;;;;;3.37;0.90;;;14.00;34.90;;;;;;10542029;28;20608;-87
2023/10/15 15:40:35;;;;;;;2.17;0.97;;;14.10;38.70;;;;;;10543193;28;20197;-87
2023/10/15 15:45:41;;;;;;;2.27;0.97;;;14.00;38.90;;;;;;10542741;28;20194;-86
2023/10/15 15:50:44;;;;;;;4.53;1.43;;;14.10;36.50;;;;;;10542619;28;20190;-86
2023/10/15 15:55:46;;;;;;;1.77;0.90;;;14.10;34.60;;;;;;10541799;28;20251;-87
2023/10/15 16:00:49;;;;;;;2.60;1.10;;;13.80;33.30;;;;;;10542687;28;20194;-87
2023/10/15 16:06:01;;;;;;;2.47;1.13;;;13.70;35.20;;;;;;10541341;28;20255;-87
2023/10/15 16:11:04;;;;;;;4.43;0.90;;;13.60;40.60;;;;;;10539727;28;20213;-87
2023/10/15 16:16:08;;;;;;;4.47;1.23;;;13.40;42.30;;;;;;10541616;28;20209;-87
2023/10/15 16:21:11;;;;;;;2.67;1.07;;;13.20;43.70;;;;;;10540741;28;20267;-86
2023/10/15 16:26:13;;;;;;;2.50;1.37;;;13.30;43.90;;;;;;10540650;28;20193;-86
2023/10/15 16:31:16;;;;;;;1.10;0.90;;;13.70;47.20;;;;;;10537706;28;20847;-86
2023/10/15 16:36:18;;;;;;;2.50;1.30;;;13.60;43.20;;;;;;10528192;28;20816;-87
2023/10/15 16:41:21;;;;;;;2.17;1.10;;;13.30;41.60;;;;;;10533816;28;20245;-87
2023/10/15 16:46:25;;;;;;;6.53;2.27;;;;;;;;;;10521302;28;20241;-87
2023/10/15 16:51:28;;;;;;;3.80;1.20;;;;;;;;;;10535189;28;20297;-87
2023/10/15 16:56:32;;;;;;;3.97;1.07;;;13.20;52.10;;;;;;10534748;28;20214;-87
2023/10/15 17:01:35;;;;;;;4.17;1.17;;;12.90;60.50;;;;;;10532901;28;20263;-87
2023/10/15 17:06:38;;;;;;;4.20;1.27;;;13.10;59.20;;;;;;10533153;28;20325;-87
2023/10/15 17:11:42;;;;;;;3.73;1.70;;;13.10;60.10;;;;;;10524927;28;20684;-86
2023/10/15 17:16:44;;;;;;;3.50;1.50;;;13.40;61.70;;;;;;10524645;28;20300;-87
2023/10/15 17:21:47;;;;;;;10.00;4.60;;;13.40;61.10;;;;;;10532981;28;20233;-87
2023/10/15 17:26:50;;;;;;;8.23;3.50;;;12.70;56.70;;;;;;10534184;28;20287;-87
2023/10/15 17:31:57;;;;;;;4.80;1.70;;;12.00;59.10;;;;;;10538345;28;20702;-87
2023/10/15 17:37:00;;;;;;;6.77;2.97;;;12.10;63.80;;;;;;10533757;28;20270;-87
2023/10/15 17:42:18;;;;;;;3.53;1.90;;;12.50;59.90;;;;;;10533863;28;20248;-87
2023/10/15 17:47:21;;;;;;;2.13;1.23;;;12.80;65.00;;;;;;10506514;28;20237;-87
2023/10/15 17:52:23;;;;;;;1.30;0.87;;;13.20;67.60;;;;;;10489198;28;20241;-87
2023/10/15 17:57:26;;;;;;;2.93;1.40;;;13.20;66.50;;;;;;10507793;28;20244;-87
2023/10/15 18:02:28;;;;;;;4.20;3.27;;;13.20;67.40;;;;;;10532195;28;20673;-87
2023/10/15 18:07:31;;;;;;;4.60;2.07;;;12.90;62.00;;;;;;10532674;28;20792;-87
2023/10/15 18:12:34;;;;;;;6.03;2.40;;;12.80;69.10;;;;;;10534251;28;20229;-87
2023/10/15 18:17:36;;;;;;;2.43;1.40;;;12.70;65.50;;;;;;10532500;28;20294;-87
2023/10/15 18:22:45;;;;;;;2.80;1.73;;;12.60;73.00;;;;;;10528183;28;20256;-87
2023/10/15 18:27:48;;;;;;;4.33;1.70;;;13.10;70.70;;;;;;10529030;28;20274;-87
2023/10/15 18:32:51;;;;;;;2.77;1.70;;;13.10;69.40;;;;;;10532782;28;20225;-87
2023/10/15 18:37:53;;;;;;;1.20;0.63;;;13.30;69.80;;;;;;10520407;28;20298;-87
2023/10/15 18:42:56;;;;;;;3.13;1.53;;;13.90;67.10;;;;;;10527914;28;20792;-87
2023/10/15 18:47:59;;;;;;;3.57;2.37;;;14.00;64.40;;;;;;10531488;28;20615;-87
2023/10/15 18:53:01;;;;;;;5.43;1.83;;;14.00;65.10;;;;;;10529666;28;20237;-86
2023/10/15 18:58:04;;;;;;;2.10;1.50;;;14.00;61.60;;;;;;10530873;28;20236;-87
2023/10/15 19:03:07;;;;;;;3.90;2.03;;;13.90;61.60;;;;;;10537976;28;20298;-87
2023/10/15 19:08:10;;;;;;;2.90;1.17;;;13.90;58.00;;;;;;10510401;28;20241;-87
2023/10/15 19:13:13;;;;;;;3.40;2.17;;;14.30;61.90;;;;;;10525536;28;20233;-87
2023/10/15 19:18:18;;;;;;;2.07;1.33;;;13.90;56.10;;;;;;10539218;28;20314;-87
2023/10/15 19:23:21;;;;;;;2.73;1.47;;;13.80;63.30;;;;;;10537278;28;20721;-87
2023/10/15 19:28:23;;;;;;;3.00;1.80;;;14.10;62.50;;;;;;10538231;28;20667;-87
2023/10/15 19:33:28;;;;;;;7.20;1.60;;;14.00;60.90;;;;;;10536827;28;20252;-87
2023/10/15 19:38:31;;;;;;;2.80;1.90;;;14.00;63.90;;;;;;10538388;28;20294;-87
2023/10/15 19:43:34;;;;;;;1.93;1.10;;;14.30;56.70;;;;;;10537333;28;20653;-87
2023/10/15 19:48:37;;;;;;;2.57;0.83;;;14.20;62.50;;;;;;10527728;28;20230;-87
2023/10/15 19:53:40;;;;;;;1.83;0.63;;;;;;;;;;10500355;28;20270;-87
2023/10/15 19:58:43;;;;;;;2.47;1.33;;;14.00;63.80;;;;;;10538128;28;20229;-87
2023/10/15 20:03:46;;;;;;;5.13;1.67;;;14.00;63.30;;;;;;10519848;28;20283;-87
2023/10/15 20:09:12;;;;;;;3.47;1.20;;;13.50;63.20;;;;;;10502010;28;20644;-87
2023/10/15 20:14:14;;;;;;;1.97;1.20;;;13.80;65.90;;;;;;10536869;28;20233;-87
2023/10/15 20:19:18;;;;;;;2.07;1.10;;;13.70;53.00;;;;;;10518682;28;20278;-88
2023/10/15 20:24:21;;;;;;;4.13;1.20;;;13.70;62.20;;;;;;10536115;28;20260;-88
2023/10/15 20:29:23;;;;;;;1.73;1.13;;;13.20;68.50;;;;;;10534985;28;20201;-88
2023/10/15 20:34:26;;;;;;;4.67;2.60;;;13.30;72.80;;;;;;10535242;28;20239;-88
2023/10/15 20:39:29;;;;;;;5.20;1.40;;;13.50;73.40;;;;;;10534476;28;20305;-87
2023/10/15 20:44:32;;;;;;;4.87;1.60;;;13.40;70.80;;;;;;10535063;28;20253;-87
2023/10/15 20:49:35;;;;;;;3.93;1.30;;;13.70;73.90;;;;;;10534420;28;20221;-87
2023/10/15 20:54:38;;;;;;;1.77;1.47;;;13.60;69.80;;;;;;10534093;28;20233;-87
2023/10/15 20:59:40;;;;;;;3.97;2.10;;;13.60;73.60;;;;;;10533867;28;20237;-87
2023/10/15 21:04:43;;;;;;;2.10;1.30;;;13.30;69.00;;;;;;10534651;28;20261;-88
2023/10/15 21:09:46;;;;;;;2.60;1.30;;;12.80;70.90;;;;;;10535225;28;20290;-87
2023/10/15 21:14:48;;;;;;;2.80;1.50;;;12.90;73.00;;;;;;10534838;28;20286;-87
2023/10/15 21:19:51;;;;;;;2.93;1.10;;;12.70;74.30;;;;;;10533509;28;20270;-87
2023/10/15 21:24:55;;;;;;;3.23;1.73;;;12.60;80.50;;;;;;10533276;28;20261;-87
2023/10/15 21:29:58;;;;;;;4.43;1.47;;;12.80;82.50;;;;;;10534102;28;20283;-87
2023/10/15 21:35:02;;;;;;;1.87;1.00;;;;;;;;;;10534399;28;20237;-87
2023/10/15 21:40:06;;;;;;;2.17;1.03;;;12.90;74.60;;;;;;10532808;28;20282;-87
2023/10/15 21:45:11;;;;;;;4.37;1.70;;;12.80;72.70;;;;;;10532826;28;20294;-88
2023/10/15 21:50:16;;;;;;;1.53;0.90;;;13.00;66.60;;;;;;10533654;28;20618;-87
2023/10/15 21:55:18;;;;;;;3.37;1.43;;;13.10;71.10;;;;;;10533606;28;20319;-87
2023/10/15 22:00:36;;;;;;;1.73;1.47;;;13.20;69.30;;;;;;10533522;28;20233;-87
2023/10/15 22:05:38;;;;;;;1.60;1.00;;;13.10;63.50;;;;;;10514940;28;20249;-87
2023/10/15 22:10:41;;;;;;;2.07;1.43;;;13.30;71.00;;;;;;10532609;28;20233;-87
2023/10/15 22:15:54;;;;;;;2.30;0.70;;;13.20;72.80;;;;;;10532855;28;20224;-87
2023/10/15 22:21:06;;;;;;;0.87;0.77;;;13.20;74.20;;;;;;10531403;28;20289;-87
2023/10/15 22:26:08;;;;;;;2.77;1.10;;;12.90;74.40;;;;;;10530219;28;20705;-87
2023/10/15 22:31:17;;;;;;;7.30;1.33;;;13.00;71.70;;;;;;10532652;28;20253;-87
2023/10/15 22:36:20;;;;;;;3.40;1.00;;;12.50;68.70;;;;;;10529568;28;20297;-87
2023/10/15 22:41:25;;;;;;;3.40;1.13;;;12.40;74.60;;;;;;10532031;28;20232;-87
2023/10/15 22:46:27;;;;;;;2.97;1.00;;;12.30;69.80;;;;;;10530067;28;20719;-87
2023/10/15 22:51:30;;;;;;;2.23;1.00;;;12.00;73.80;;;;;;10529260;28;20618;-87
2023/10/15 22:56:36;;;;;;;1.40;0.90;;;12.50;76.40;;;;;;10531640;28;20691;-87
2023/10/15 23:01:39;;;;;;;3.70;1.40;;;12.80;76.20;;;;;;10531445;28;20329;-87
2023/10/15 23:06:41;;;;;;;1.57;0.80;;;12.50;77.70;;;;;;10529078;28;20264;-87
2023/10/15 23:11:44;;;;;;;1.13;0.80;;;13.00;76.90;;;;;;10531311;28;20259;-87
2023/10/15 23:16:46;;;;;;;1.97;0.90;;;12.90;73.70;;;;;;10531268;28;20233;-87
2023/10/15 23:21:54;;;;;;;3.80;1.00;;;13.00;68.70;;;;;;10531672;28;20230;-87
2023/10/15 23:26:57;;;;;;;1.50;1.10;;;12.90;75.00;;;;;;10530550;28;20281;-87
2023/10/15 23:32:01;;;;;;;1.40;0.77;;;12.80;74.50;;;;;;10529789;28;20673;-87
2023/10/15 23:37:06;;;;;;;2.50;0.90;;;12.60;71.50;;;;;;10530059;28;20383;-88
2023/10/15 23:42:09;;;;;;;1.57;0.70;;;12.40;72.20;;;;;;10529460;28;20233;-87
2023/10/15 23:47:17;;;;;;;2.13;1.10;;;12.60;77.70;;;;;;10533015;28;20712;-87
2023/10/15 23:52:23;;;;;;;2.00;0.90;;;12.40;76.00;;;;;;10538020;28;20262;-87
2023/10/15 23:57:29;;;;;;;4.13;1.17;;;12.60;76.50;;;;;;10539036;28;20237;-87
